sensor_id;sensor_type;location;lat;lon;timestamp;P1;durP1;ratioP1;P2;durP2;ratioP2
53145;SDS011;39042;53.150;5.898;2024-02-21T00:00:55;17.85;;;3.22;;
53145;SDS011;39042;53.150;5.898;2024-02-21T00:03:21;16.00;;;2.78;;
53145;SDS011;39042;53.150;5.898;2024-02-21T00:05:47;19.60;;;2.23;;
53145;SDS011;39042;53.150;5.898;2024-02-21T00:08:13;22.33;;;4.00;;
53145;SDS011;39042;53.150;5.898;2024-02-21T00:10:39;22.97;;;2.70;;
53145;SDS011;39042;53.150;5.898;2024-02-21T00:13:04;20.20;;;2.90;;
53145;SDS011;39042;53.150;5.898;2024-02-21T00:15:30;16.58;;;2.95;;
53145;SDS011;39042;53.150;5.898;2024-02-21T00:17:56;25.33;;;3.17;;
53145;SDS011;39042;53.150;5.898;2024-02-21T00:20:22;19.90;;;2.80;;
53145;SDS011;39042;53.150;5.898;2024-02-21T00:22:48;18.53;;;3.27;;
53145;SDS011;39042;53.150;5.898;2024-02-21T00:25:15;17.97;;;2.90;;
53145;SDS011;39042;53.150;5.898;2024-02-21T00:27:41;21.63;;;3.13;;
53145;SDS011;39042;53.150;5.898;2024-02-21T00:30:07;28.43;;;3.20;;
53145;SDS011;39042;53.150;5.898;2024-02-21T00:32:33;20.17;;;3.10;;
53145;SDS011;39042;53.150;5.898;2024-02-21T00:35:00;27.13;;;9.93;;
53145;SDS011;39042;53.150;5.898;2024-02-21T00:37:26;26.85;;;5.85;;
53145;SDS011;39042;53.150;5.898;2024-02-21T00:39:53;26.58;;;4.30;;
53145;SDS011;39042;53.150;5.898;2024-02-21T00:42:19;21.90;;;4.03;;
53145;SDS011;39042;53.150;5.898;2024-02-21T00:44:46;19.02;;;3.22;;
53145;SDS011;39042;53.150;5.898;2024-02-21T00:47:12;24.48;;;4.50;;
53145;SDS011;39042;53.150;5.898;2024-02-21T00:49:38;18.13;;;2.90;;
53145;SDS011;39042;53.150;5.898;2024-02-21T00:52:04;28.07;;;4.60;;
53145;SDS011;39042;53.150;5.898;2024-02-21T00:54:29;18.77;;;3.23;;
53145;SDS011;39042;53.150;5.898;2024-02-21T00:56:55;26.53;;;4.60;;
53145;SDS011;39042;53.150;5.898;2024-02-21T00:59:21;24.90;;;4.40;;
53145;SDS011;39042;53.150;5.898;2024-02-21T01:01:47;27.13;;;4.20;;
53145;SDS011;39042;53.150;5.898;2024-02-21T01:04:13;24.00;;;4.37;;
53145;SDS011;39042;53.150;5.898;2024-02-21T01:06:38;27.23;;;4.60;;
53145;SDS011;39042;53.150;5.898;2024-02-21T01:09:08;24.95;;;4.80;;
53145;SDS011;39042;53.150;5.898;2024-02-21T01:11:33;28.23;;;4.70;;
53145;SDS011;39042;53.150;5.898;2024-02-21T01:13:59;27.07;;;5.30;;
53145;SDS011;39042;53.150;5.898;2024-02-21T01:16:25;24.13;;;5.87;;
53145;SDS011;39042;53.150;5.898;2024-02-21T01:18:51;27.13;;;5.80;;
53145;SDS011;39042;53.150;5.898;2024-02-21T01:21:17;21.83;;;5.50;;
53145;SDS011;39042;53.150;5.898;2024-02-21T01:23:43;26.10;;;6.20;;
53145;SDS011;39042;53.150;5.898;2024-02-21T01:26:09;27.90;;;6.00;;
53145;SDS011;39042;53.150;5.898;2024-02-21T01:28:38;31.30;;;6.57;;
53145;SDS011;39042;53.150;5.898;2024-02-21T01:31:04;26.75;;;6.97;;
53145;SDS011;39042;53.150;5.898;2024-02-21T01:33:30;29.20;;;6.70;;
53145;SDS011;39042;53.150;5.898;2024-02-21T01:36:03;26.20;;;5.93;;
53145;SDS011;39042;53.150;5.898;2024-02-21T01:38:29;31.38;;;6.22;;
53145;SDS011;39042;53.150;5.898;2024-02-21T01:40:55;32.07;;;7.33;;
53145;SDS011;39042;53.150;5.898;2024-02-21T01:43:21;31.60;;;6.47;;
53145;SDS011;39042;53.150;5.898;2024-02-21T01:45:52;30.13;;;6.00;;
53145;SDS011;39042;53.150;5.898;2024-02-21T01:48:20;34.05;;;5.72;;
53145;SDS011;39042;53.150;5.898;2024-02-21T01:50:47;27.20;;;5.50;;
53145;SDS011;39042;53.150;5.898;2024-02-21T01:53:16;20.83;;;4.95;;
53145;SDS011;39042;53.150;5.898;2024-02-21T01:55:46;32.38;;;5.72;;
53145;SDS011;39042;53.150;5.898;2024-02-21T01:58:13;30.40;;;4.93;;
53145;SDS011;39042;53.150;5.898;2024-02-21T02:00:41;34.00;;;5.32;;
53145;SDS011;39042;53.150;5.898;2024-02-21T02:03:09;26.45;;;4.93;;
53145;SDS011;39042;53.150;5.898;2024-02-21T02:05:48;23.50;;;4.80;;
53145;SDS011;39042;53.150;5.898;2024-02-21T02:08:24;27.30;;;5.95;;
53145;SDS011;39042;53.150;5.898;2024-02-21T02:10:49;33.13;;;5.10;;
53145;SDS011;39042;53.150;5.898;2024-02-21T02:13:15;27.67;;;4.80;;
53145;SDS011;39042;53.150;5.898;2024-02-21T02:18:09;29.88;;;4.65;;
53145;SDS011;39042;53.150;5.898;2024-02-21T02:20:35;32.83;;;4.47;;
53145;SDS011;39042;53.150;5.898;2024-02-21T02:23:11;36.13;;;5.18;;
53145;SDS011;39042;53.150;5.898;2024-02-21T02:25:59;37.50;;;6.13;;
53145;SDS011;39042;53.150;5.898;2024-02-21T02:28:28;34.38;;;5.43;;
53145;SDS011;39042;53.150;5.898;2024-02-21T02:30:54;33.07;;;5.20;;
53145;SDS011;39042;53.150;5.898;2024-02-21T02:33:20;22.93;;;3.77;;
53145;SDS011;39042;53.150;5.898;2024-02-21T02:35:46;32.37;;;4.97;;
53145;SDS011;39042;53.150;5.898;2024-02-21T02:38:12;30.13;;;4.97;;
53145;SDS011;39042;53.150;5.898;2024-02-21T02:40:38;28.70;;;4.80;;
53145;SDS011;39042;53.150;5.898;2024-02-21T02:43:06;30.13;;;5.55;;
53145;SDS011;39042;53.150;5.898;2024-02-21T02:45:31;30.43;;;4.63;;
53145;SDS011;39042;53.150;5.898;2024-02-21T02:47:58;34.38;;;6.10;;
53145;SDS011;39042;53.150;5.898;2024-02-21T02:50:24;28.02;;;5.03;;
53145;SDS011;39042;53.150;5.898;2024-02-21T02:52:51;28.65;;;6.22;;
53145;SDS011;39042;53.150;5.898;2024-02-21T02:55:17;30.67;;;6.40;;
53145;SDS011;39042;53.150;5.898;2024-02-21T02:57:43;34.87;;;5.33;;
53145;SDS011;39042;53.150;5.898;2024-02-21T03:00:13;29.95;;;5.43;;
53145;SDS011;39042;53.150;5.898;2024-02-21T03:02:40;33.03;;;5.15;;
53145;SDS011;39042;53.150;5.898;2024-02-21T03:05:11;26.88;;;5.05;;
53145;SDS011;39042;53.150;5.898;2024-02-21T03:07:39;37.72;;;5.60;;
53145;SDS011;39042;53.150;5.898;2024-02-21T03:10:06;21.05;;;5.05;;
53145;SDS011;39042;53.150;5.898;2024-02-21T03:12:32;33.05;;;5.50;;
53145;SDS011;39042;53.150;5.898;2024-02-21T03:14:58;30.60;;;4.88;;
53145;SDS011;39042;53.150;5.898;2024-02-21T03:17:24;33.20;;;5.97;;
53145;SDS011;39042;53.150;5.898;2024-02-21T03:19:52;30.77;;;5.70;;
53145;SDS011;39042;53.150;5.898;2024-02-21T03:22:18;37.28;;;5.20;;
53145;SDS011;39042;53.150;5.898;2024-02-21T03:24:44;33.13;;;5.67;;
53145;SDS011;39042;53.150;5.898;2024-02-21T03:27:10;37.13;;;5.68;;
53145;SDS011;39042;53.150;5.898;2024-02-21T03:29:36;32.60;;;6.30;;
53145;SDS011;39042;53.150;5.898;2024-02-21T03:32:01;31.97;;;5.23;;
53145;SDS011;39042;53.150;5.898;2024-02-21T03:34:27;34.08;;;5.75;;
53145;SDS011;39042;53.150;5.898;2024-02-21T03:36:53;29.90;;;5.60;;
53145;SDS011;39042;53.150;5.898;2024-02-21T03:39:19;29.43;;;6.07;;
53145;SDS011;39042;53.150;5.898;2024-02-21T03:41:46;28.20;;;5.20;;
53145;SDS011;39042;53.150;5.898;2024-02-21T03:44:12;36.83;;;5.28;;
53145;SDS011;39042;53.150;5.898;2024-02-21T03:46:38;33.40;;;4.70;;
53145;SDS011;39042;53.150;5.898;2024-02-21T03:49:04;31.92;;;5.45;;
53145;SDS011;39042;53.150;5.898;2024-02-21T03:51:30;29.25;;;5.00;;
53145;SDS011;39042;53.150;5.898;2024-02-21T03:53:56;27.73;;;4.57;;
53145;SDS011;39042;53.150;5.898;2024-02-21T03:56:22;31.70;;;5.63;;
53145;SDS011;39042;53.150;5.898;2024-02-21T03:58:48;27.47;;;5.40;;
53145;SDS011;39042;53.150;5.898;2024-02-21T04:01:15;30.70;;;5.80;;
53145;SDS011;39042;53.150;5.898;2024-02-21T04:03:42;28.23;;;4.82;;
53145;SDS011;39042;53.150;5.898;2024-02-21T04:06:08;33.60;;;6.43;;
53145;SDS011;39042;53.150;5.898;2024-02-21T04:08:35;28.27;;;4.82;;
53145;SDS011;39042;53.150;5.898;2024-02-21T04:11:01;32.30;;;5.40;;
53145;SDS011;39042;53.150;5.898;2024-02-21T04:13:26;28.70;;;5.22;;
53145;SDS011;39042;53.150;5.898;2024-02-21T04:15:52;28.10;;;4.80;;
53145;SDS011;39042;53.150;5.898;2024-02-21T04:18:18;23.77;;;3.93;;
53145;SDS011;39042;53.150;5.898;2024-02-21T04:20:44;25.55;;;4.50;;
53145;SDS011;39042;53.150;5.898;2024-02-21T04:23:10;28.37;;;4.13;;
53145;SDS011;39042;53.150;5.898;2024-02-21T04:25:36;19.53;;;3.40;;
53145;SDS011;39042;53.150;5.898;2024-02-21T04:28:02;33.27;;;5.40;;
53145;SDS011;39042;53.150;5.898;2024-02-21T04:30:28;30.10;;;4.90;;
53145;SDS011;39042;53.150;5.898;2024-02-21T04:32:54;24.48;;;4.38;;
53145;SDS011;39042;53.150;5.898;2024-02-21T04:35:20;28.93;;;5.13;;
53145;SDS011;39042;53.150;5.898;2024-02-21T04:37:46;27.73;;;4.32;;
53145;SDS011;39042;53.150;5.898;2024-02-21T04:40:12;24.23;;;3.60;;
53145;SDS011;39042;53.150;5.898;2024-02-21T04:42:39;36.33;;;4.55;;
53145;SDS011;39042;53.150;5.898;2024-02-21T04:45:05;29.20;;;4.03;;
53145;SDS011;39042;53.150;5.898;2024-02-21T04:47:31;25.88;;;4.40;;
53145;SDS011;39042;53.150;5.898;2024-02-21T04:49:57;25.33;;;4.47;;
53145;SDS011;39042;53.150;5.898;2024-02-21T04:52:23;17.57;;;4.13;;
53145;SDS011;39042;53.150;5.898;2024-02-21T04:54:49;23.13;;;4.30;;
53145;SDS011;39042;53.150;5.898;2024-02-21T04:57:15;30.75;;;4.13;;
53145;SDS011;39042;53.150;5.898;2024-02-21T04:59:45;26.80;;;4.03;;
53145;SDS011;39042;53.150;5.898;2024-02-21T05:02:14;29.95;;;4.22;;
53145;SDS011;39042;53.150;5.898;2024-02-21T05:04:41;21.73;;;4.27;;
53145;SDS011;39042;53.150;5.898;2024-02-21T05:07:08;23.98;;;3.90;;
53145;SDS011;39042;53.150;5.898;2024-02-21T05:09:34;25.40;;;3.47;;
53145;SDS011;39042;53.150;5.898;2024-02-21T05:12:00;29.77;;;4.50;;
53145;SDS011;39042;53.150;5.898;2024-02-21T05:14:26;31.37;;;4.67;;
53145;SDS011;39042;53.150;5.898;2024-02-21T05:16:52;36.38;;;4.82;;
53145;SDS011;39042;53.150;5.898;2024-02-21T05:19:18;32.88;;;5.32;;
53145;SDS011;39042;53.150;5.898;2024-02-21T05:21:44;36.23;;;5.33;;
53145;SDS011;39042;53.150;5.898;2024-02-21T05:24:10;28.50;;;5.03;;
53145;SDS011;39042;53.150;5.898;2024-02-21T05:26:36;26.00;;;4.63;;
53145;SDS011;39042;53.150;5.898;2024-02-21T05:29:03;40.70;;;5.22;;
53145;SDS011;39042;53.150;5.898;2024-02-21T05:34:16;26.17;;;5.28;;
53145;SDS011;39042;53.150;5.898;2024-02-21T05:36:43;27.88;;;6.00;;
53145;SDS011;39042;53.150;5.898;2024-02-21T05:39:09;26.13;;;5.18;;
53145;SDS011;39042;53.150;5.898;2024-02-21T05:41:35;31.08;;;5.63;;
53145;SDS011;39042;53.150;5.898;2024-02-21T05:44:01;32.60;;;5.17;;
53145;SDS011;39042;53.150;5.898;2024-02-21T05:46:27;24.85;;;4.07;;
53145;SDS011;39042;53.150;5.898;2024-02-21T05:48:53;29.65;;;5.25;;
53145;SDS011;39042;53.150;5.898;2024-02-21T05:51:19;30.92;;;5.65;;
53145;SDS011;39042;53.150;5.898;2024-02-21T05:53:44;29.93;;;5.10;;
53145;SDS011;39042;53.150;5.898;2024-02-21T05:56:11;32.10;;;5.23;;
53145;SDS011;39042;53.150;5.898;2024-02-21T05:58:37;24.70;;;4.97;;
53145;SDS011;39042;53.150;5.898;2024-02-21T06:01:03;24.63;;;5.20;;
53145;SDS011;39042;53.150;5.898;2024-02-21T06:03:30;28.70;;;5.30;;
53145;SDS011;39042;53.150;5.898;2024-02-21T06:05:56;29.33;;;5.17;;
53145;SDS011;39042;53.150;5.898;2024-02-21T06:08:21;26.70;;;4.53;;
53145;SDS011;39042;53.150;5.898;2024-02-21T06:10:47;23.57;;;5.80;;
53145;SDS011;39042;53.150;5.898;2024-02-21T06:13:13;31.35;;;5.82;;
53145;SDS011;39042;53.150;5.898;2024-02-21T06:15:40;22.90;;;5.13;;
53145;SDS011;39042;53.150;5.898;2024-02-21T06:18:05;26.05;;;5.30;;
53145;SDS011;39042;53.150;5.898;2024-02-21T06:20:31;25.27;;;5.18;;
53145;SDS011;39042;53.150;5.898;2024-02-21T06:22:57;26.63;;;4.87;;
53145;SDS011;39042;53.150;5.898;2024-02-21T06:25:23;33.73;;;5.37;;
53145;SDS011;39042;53.150;5.898;2024-02-21T06:27:49;34.73;;;5.80;;
53145;SDS011;39042;53.150;5.898;2024-02-21T06:30:15;33.77;;;5.63;;
53145;SDS011;39042;53.150;5.898;2024-02-21T06:32:40;35.13;;;6.27;;
53145;SDS011;39042;53.150;5.898;2024-02-21T06:35:06;24.83;;;5.77;;
53145;SDS011;39042;53.150;5.898;2024-02-21T06:37:32;38.27;;;6.10;;
53145;SDS011;39042;53.150;5.898;2024-02-21T06:39:58;31.83;;;5.97;;
53145;SDS011;39042;53.150;5.898;2024-02-21T06:42:24;35.80;;;6.75;;
53145;SDS011;39042;53.150;5.898;2024-02-21T06:44:50;32.92;;;5.53;;
53145;SDS011;39042;53.150;5.898;2024-02-21T06:47:17;35.20;;;5.32;;
53145;SDS011;39042;53.150;5.898;2024-02-21T06:49:42;25.93;;;5.80;;
53145;SDS011;39042;53.150;5.898;2024-02-21T06:52:13;42.78;;;7.45;;
53145;SDS011;39042;53.150;5.898;2024-02-21T06:54:42;34.35;;;6.65;;
53145;SDS011;39042;53.150;5.898;2024-02-21T06:57:08;35.20;;;7.07;;
53145;SDS011;39042;53.150;5.898;2024-02-21T06:59:34;43.23;;;9.17;;
53145;SDS011;39042;53.150;5.898;2024-02-21T07:01:59;44.60;;;9.63;;
53145;SDS011;39042;53.150;5.898;2024-02-21T07:04:26;49.08;;;10.65;;
53145;SDS011;39042;53.150;5.898;2024-02-21T07:06:52;51.92;;;11.30;;
53145;SDS011;39042;53.150;5.898;2024-02-21T07:09:18;53.60;;;10.82;;
53145;SDS011;39042;53.150;5.898;2024-02-21T07:11:44;48.63;;;12.43;;
53145;SDS011;39042;53.150;5.898;2024-02-21T07:14:09;50.53;;;12.30;;
53145;SDS011;39042;53.150;5.898;2024-02-21T07:16:35;58.10;;;14.80;;
53145;SDS011;39042;53.150;5.898;2024-02-21T07:19:02;53.77;;;13.53;;
53145;SDS011;39042;53.150;5.898;2024-02-21T07:21:28;47.33;;;13.35;;
53145;SDS011;39042;53.150;5.898;2024-02-21T07:23:53;52.87;;;14.83;;
53145;SDS011;39042;53.150;5.898;2024-02-21T07:26:19;48.27;;;14.83;;
53145;SDS011;39042;53.150;5.898;2024-02-21T07:28:45;43.10;;;14.77;;
53145;SDS011;39042;53.150;5.898;2024-02-21T07:31:11;38.35;;;12.63;;
53145;SDS011;39042;53.150;5.898;2024-02-21T07:33:37;55.23;;;17.67;;
53145;SDS011;39042;53.150;5.898;2024-02-21T07:36:07;71.63;;;17.93;;
53145;SDS011;39042;53.150;5.898;2024-02-21T07:38:33;61.03;;;19.00;;
53145;SDS011;39042;53.150;5.898;2024-02-21T07:40:59;61.97;;;17.17;;
53145;SDS011;39042;53.150;5.898;2024-02-21T07:43:25;59.70;;;17.80;;
53145;SDS011;39042;53.150;5.898;2024-02-21T07:45:52;60.85;;;15.70;;
53145;SDS011;39042;53.150;5.898;2024-02-21T07:50:44;49.47;;;13.85;;
53145;SDS011;39042;53.150;5.898;2024-02-21T07:53:10;48.27;;;11.90;;
53145;SDS011;39042;53.150;5.898;2024-02-21T07:55:36;36.10;;;9.00;;
53145;SDS011;39042;53.150;5.898;2024-02-21T07:58:02;35.87;;;9.67;;
53145;SDS011;39042;53.150;5.898;2024-02-21T08:00:28;32.67;;;7.88;;
53145;SDS011;39042;53.150;5.898;2024-02-21T08:05:20;23.77;;;6.75;;
53145;SDS011;39042;53.150;5.898;2024-02-21T08:07:48;30.30;;;7.47;;
53145;SDS011;39042;53.150;5.898;2024-02-21T08:10:13;27.00;;;6.45;;
53145;SDS011;39042;53.150;5.898;2024-02-21T08:12:39;28.00;;;8.43;;
53145;SDS011;39042;53.150;5.898;2024-02-21T08:15:05;29.20;;;6.80;;
53145;SDS011;39042;53.150;5.898;2024-02-21T08:17:33;23.13;;;6.55;;
53145;SDS011;39042;53.150;5.898;2024-02-21T08:19:59;29.23;;;6.03;;
53145;SDS011;39042;53.150;5.898;2024-02-21T08:22:25;20.97;;;5.60;;
53145;SDS011;39042;53.150;5.898;2024-02-21T08:24:51;23.95;;;6.47;;
53145;SDS011;39042;53.150;5.898;2024-02-21T08:27:17;26.10;;;7.72;;
53145;SDS011;39042;53.150;5.898;2024-02-21T08:29:43;29.57;;;9.67;;
53145;SDS011;39042;53.150;5.898;2024-02-21T08:32:09;32.20;;;10.37;;
53145;SDS011;39042;53.150;5.898;2024-02-21T08:34:35;29.37;;;11.53;;
53145;SDS011;39042;53.150;5.898;2024-02-21T08:37:01;33.97;;;14.00;;
53145;SDS011;39042;53.150;5.898;2024-02-21T08:39:26;34.00;;;14.90;;
53145;SDS011;39042;53.150;5.898;2024-02-21T08:41:54;33.25;;;14.80;;
53145;SDS011;39042;53.150;5.898;2024-02-21T08:44:21;39.45;;;17.17;;
53145;SDS011;39042;53.150;5.898;2024-02-21T08:46:48;33.72;;;17.38;;
53145;SDS011;39042;53.150;5.898;2024-02-21T08:49:14;42.53;;;19.13;;
53145;SDS011;39042;53.150;5.898;2024-02-21T08:51:40;39.37;;;18.43;;
53145;SDS011;39042;53.150;5.898;2024-02-21T08:54:06;36.13;;;18.13;;
53145;SDS011;39042;53.150;5.898;2024-02-21T08:56:32;39.43;;;17.60;;
53145;SDS011;39042;53.150;5.898;2024-02-21T08:58:58;35.35;;;17.25;;
53145;SDS011;39042;53.150;5.898;2024-02-21T09:01:23;34.17;;;15.77;;
53145;SDS011;39042;53.150;5.898;2024-02-21T09:03:49;33.07;;;16.83;;
53145;SDS011;39042;53.150;5.898;2024-02-21T09:06:18;34.47;;;17.05;;
53145;SDS011;39042;53.150;5.898;2024-02-21T09:08:45;29.75;;;16.48;;
53145;SDS011;39042;53.150;5.898;2024-02-21T09:11:11;30.17;;;15.98;;
53145;SDS011;39042;53.150;5.898;2024-02-21T09:13:37;34.22;;;16.50;;
53145;SDS011;39042;53.150;5.898;2024-02-21T09:16:03;31.27;;;15.90;;
53145;SDS011;39042;53.150;5.898;2024-02-21T09:18:29;24.40;;;14.82;;
53145;SDS011;39042;53.150;5.898;2024-02-21T09:20:55;34.13;;;15.87;;
53145;SDS011;39042;53.150;5.898;2024-02-21T09:23:23;31.67;;;15.73;;
53145;SDS011;39042;53.150;5.898;2024-02-21T09:25:50;27.27;;;14.75;;
53145;SDS011;39042;53.150;5.898;2024-02-21T09:28:15;27.90;;;15.03;;
53145;SDS011;39042;53.150;5.898;2024-02-21T09:30:41;27.10;;;15.73;;
53145;SDS011;39042;53.150;5.898;2024-02-21T09:33:07;25.87;;;15.17;;
53145;SDS011;39042;53.150;5.898;2024-02-21T09:35:33;24.13;;;14.63;;
53145;SDS011;39042;53.150;5.898;2024-02-21T09:37:59;32.40;;;17.30;;
53145;SDS011;39042;53.150;5.898;2024-02-21T09:40:25;32.03;;;16.45;;
53145;SDS011;39042;53.150;5.898;2024-02-21T09:42:55;33.75;;;16.35;;
53145;SDS011;39042;53.150;5.898;2024-02-21T09:45:32;30.40;;;15.57;;
53145;SDS011;39042;53.150;5.898;2024-02-21T09:50:59;21.13;;;14.95;;
53145;SDS011;39042;53.150;5.898;2024-02-21T09:53:27;31.58;;;17.52;;
53145;SDS011;39042;53.150;5.898;2024-02-21T09:55:53;27.52;;;15.65;;
53145;SDS011;39042;53.150;5.898;2024-02-21T09:58:20;29.10;;;15.93;;
53145;SDS011;39042;53.150;5.898;2024-02-21T10:00:46;27.10;;;15.10;;
53145;SDS011;39042;53.150;5.898;2024-02-21T10:03:12;29.85;;;15.88;;
53145;SDS011;39042;53.150;5.898;2024-02-21T10:05:39;31.27;;;16.03;;
53145;SDS011;39042;53.150;5.898;2024-02-21T10:08:13;29.63;;;16.73;;
53145;SDS011;39042;53.150;5.898;2024-02-21T10:10:42;24.55;;;15.98;;
53145;SDS011;39042;53.150;5.898;2024-02-21T10:13:09;34.55;;;17.55;;
53145;SDS011;39042;53.150;5.898;2024-02-21T10:15:36;25.10;;;15.95;;
53145;SDS011;39042;53.150;5.898;2024-02-21T10:18:02;31.87;;;15.87;;
53145;SDS011;39042;53.150;5.898;2024-02-21T10:20:32;27.27;;;15.10;;
53145;SDS011;39042;53.150;5.898;2024-02-21T10:23:02;23.83;;;14.63;;
53145;SDS011;39042;53.150;5.898;2024-02-21T10:25:33;23.70;;;13.98;;
53145;SDS011;39042;53.150;5.898;2024-02-21T10:28:01;27.08;;;14.55;;
53145;SDS011;39042;53.150;5.898;2024-02-21T10:30:28;23.77;;;14.88;;
53145;SDS011;39042;53.150;5.898;2024-02-21T10:32:54;28.63;;;15.97;;
53145;SDS011;39042;53.150;5.898;2024-02-21T10:35:27;32.58;;;15.57;;
53145;SDS011;39042;53.150;5.898;2024-02-21T10:37:55;26.02;;;14.32;;
53145;SDS011;39042;53.150;5.898;2024-02-21T10:40:28;26.88;;;14.32;;
53145;SDS011;39042;53.150;5.898;2024-02-21T10:42:59;24.08;;;12.73;;
53145;SDS011;39042;53.150;5.898;2024-02-21T10:45:35;22.17;;;13.27;;
53145;SDS011;39042;53.150;5.898;2024-02-21T10:48:14;24.75;;;13.68;;
53145;SDS011;39042;53.150;5.898;2024-02-21T10:56:32;25.42;;;15.10;;
53145;SDS011;39042;53.150;5.898;2024-02-21T10:59:04;23.33;;;14.18;;
53145;SDS011;39042;53.150;5.898;2024-02-21T11:01:31;23.40;;;13.68;;
53145;SDS011;39042;53.150;5.898;2024-02-21T11:04:07;23.48;;;14.25;;
53145;SDS011;39042;53.150;5.898;2024-02-21T11:06:35;23.05;;;16.15;;
53145;SDS011;39042;53.150;5.898;2024-02-21T11:09:03;23.27;;;14.32;;
53145;SDS011;39042;53.150;5.898;2024-02-21T11:11:37;21.05;;;13.90;;
53145;SDS011;39042;53.150;5.898;2024-02-21T11:14:11;19.65;;;12.95;;
53145;SDS011;39042;53.150;5.898;2024-02-21T11:16:44;24.02;;;14.55;;
53145;SDS011;39042;53.150;5.898;2024-02-21T11:19:21;21.88;;;13.52;;
53145;SDS011;39042;53.150;5.898;2024-02-21T11:21:49;21.88;;;13.45;;
53145;SDS011;39042;53.150;5.898;2024-02-21T11:24:31;19.60;;;12.68;;
53145;SDS011;39042;53.150;5.898;2024-02-21T11:29:47;19.90;;;12.77;;
53145;SDS011;39042;53.150;5.898;2024-02-21T11:32:19;19.92;;;13.52;;
53145;SDS011;39042;53.150;5.898;2024-02-21T11:34:56;19.90;;;12.35;;
53145;SDS011;39042;53.150;5.898;2024-02-21T11:37:24;24.95;;;13.40;;
53145;SDS011;39042;53.150;5.898;2024-02-21T11:39:53;26.10;;;13.98;;
53145;SDS011;39042;53.150;5.898;2024-02-21T11:42:22;19.20;;;13.43;;
53145;SDS011;39042;53.150;5.898;2024-02-21T11:44:50;21.15;;;13.63;;
53145;SDS011;39042;53.150;5.898;2024-02-21T11:47:17;20.70;;;13.95;;
53145;SDS011;39042;53.150;5.898;2024-02-21T11:49:47;21.00;;;13.23;;
53145;SDS011;39042;53.150;5.898;2024-02-21T11:52:24;21.25;;;13.75;;
53145;SDS011;39042;53.150;5.898;2024-02-21T11:54:51;25.83;;;14.30;;
53145;SDS011;39042;53.150;5.898;2024-02-21T11:57:22;21.85;;;14.13;;
53145;SDS011;39042;53.150;5.898;2024-02-21T11:59:48;24.77;;;14.43;;
53145;SDS011;39042;53.150;5.898;2024-02-21T12:02:15;22.23;;;13.85;;
53145;SDS011;39042;53.150;5.898;2024-02-21T12:04:41;22.40;;;13.70;;
53145;SDS011;39042;53.150;5.898;2024-02-21T12:07:08;21.77;;;12.73;;
53145;SDS011;39042;53.150;5.898;2024-02-21T12:09:34;24.17;;;12.60;;
53145;SDS011;39042;53.150;5.898;2024-02-21T12:12:01;22.95;;;11.90;;
53145;SDS011;39042;53.150;5.898;2024-02-21T12:14:28;18.42;;;12.18;;
53145;SDS011;39042;53.150;5.898;2024-02-21T12:16:55;20.83;;;12.02;;
53145;SDS011;39042;53.150;5.898;2024-02-21T12:19:21;18.52;;;11.77;;
53145;SDS011;39042;53.150;5.898;2024-02-21T12:21:48;14.73;;;10.23;;
53145;SDS011;39042;53.150;5.898;2024-02-21T12:24:15;16.15;;;10.23;;
53145;SDS011;39042;53.150;5.898;2024-02-21T12:26:51;15.43;;;10.15;;
53145;SDS011;39042;53.150;5.898;2024-02-21T12:31:47;17.95;;;10.02;;
53145;SDS011;39042;53.150;5.898;2024-02-21T12:34:14;15.05;;;8.52;;
53145;SDS011;39042;53.150;5.898;2024-02-21T12:36:41;14.90;;;9.02;;
53145;SDS011;39042;53.150;5.898;2024-02-21T12:39:08;13.02;;;8.88;;
53145;SDS011;39042;53.150;5.898;2024-02-21T12:41:38;14.10;;;9.05;;
53145;SDS011;39042;53.150;5.898;2024-02-21T12:44:05;14.05;;;8.75;;
53145;SDS011;39042;53.150;5.898;2024-02-21T12:46:34;13.35;;;8.98;;
53145;SDS011;39042;53.150;5.898;2024-02-21T12:51:29;12.27;;;7.47;;
53145;SDS011;39042;53.150;5.898;2024-02-21T12:53:56;15.55;;;7.95;;
53145;SDS011;39042;53.150;5.898;2024-02-21T12:56:22;18.02;;;7.07;;
53145;SDS011;39042;53.150;5.898;2024-02-21T12:58:49;13.85;;;6.85;;
53145;SDS011;39042;53.150;5.898;2024-02-21T13:01:16;11.60;;;6.03;;
53145;SDS011;39042;53.150;5.898;2024-02-21T13:03:42;13.73;;;6.35;;
53145;SDS011;39042;53.150;5.898;2024-02-21T13:06:08;9.17;;;5.93;;
53145;SDS011;39042;53.150;5.898;2024-02-21T13:08:38;10.40;;;6.25;;
53145;SDS011;39042;53.150;5.898;2024-02-21T13:11:10;10.52;;;5.80;;
53145;SDS011;39042;53.150;5.898;2024-02-21T13:13:37;8.18;;;5.35;;
53145;SDS011;39042;53.150;5.898;2024-02-21T13:16:03;10.32;;;5.43;;
53145;SDS011;39042;53.150;5.898;2024-02-21T13:18:29;12.05;;;5.50;;
53145;SDS011;39042;53.150;5.898;2024-02-21T13:21:00;6.68;;;4.72;;
53145;SDS011;39042;53.150;5.898;2024-02-21T13:23:36;10.20;;;5.50;;
53145;SDS011;39042;53.150;5.898;2024-02-21T13:26:09;10.35;;;5.57;;
53145;SDS011;39042;53.150;5.898;2024-02-21T13:28:35;8.38;;;4.97;;
53145;SDS011;39042;53.150;5.898;2024-02-21T13:31:10;7.88;;;4.53;;
53145;SDS011;39042;53.150;5.898;2024-02-21T13:33:35;11.07;;;5.38;;
53145;SDS011;39042;53.150;5.898;2024-02-21T13:36:01;10.48;;;4.95;;
53145;SDS011;39042;53.150;5.898;2024-02-21T13:38:31;8.90;;;4.78;;
53145;SDS011;39042;53.150;5.898;2024-02-21T13:40:56;8.97;;;5.00;;
53145;SDS011;39042;53.150;5.898;2024-02-21T13:43:22;9.83;;;5.00;;
53145;SDS011;39042;53.150;5.898;2024-02-21T13:45:55;8.10;;;5.18;;
53145;SDS011;39042;53.150;5.898;2024-02-21T13:48:27;8.50;;;5.25;;
53145;SDS011;39042;53.150;5.898;2024-02-21T13:50:54;10.82;;;5.80;;
53145;SDS011;39042;53.150;5.898;2024-02-21T13:53:20;7.65;;;4.97;;
53145;SDS011;39042;53.150;5.898;2024-02-21T13:55:48;7.55;;;4.78;;
53145;SDS011;39042;53.150;5.898;2024-02-21T13:58:16;6.85;;;4.93;;
53145;SDS011;39042;53.150;5.898;2024-02-21T14:00:43;8.82;;;5.63;;
53145;SDS011;39042;53.150;5.898;2024-02-21T14:03:14;7.70;;;5.70;;
53145;SDS011;39042;53.150;5.898;2024-02-21T14:05:40;9.77;;;5.75;;
53145;SDS011;39042;53.150;5.898;2024-02-21T14:08:06;8.32;;;5.90;;
53145;SDS011;39042;53.150;5.898;2024-02-21T14:10:34;11.13;;;5.90;;
53145;SDS011;39042;53.150;5.898;2024-02-21T14:13:03;11.65;;;5.55;;
53145;SDS011;39042;53.150;5.898;2024-02-21T14:15:31;11.98;;;6.10;;
53145;SDS011;39042;53.150;5.898;2024-02-21T14:17:57;11.25;;;5.93;;
53145;SDS011;39042;53.150;5.898;2024-02-21T14:20:23;9.33;;;6.47;;
53145;SDS011;39042;53.150;5.898;2024-02-21T14:22:49;9.07;;;6.70;;
53145;SDS011;39042;53.150;5.898;2024-02-21T14:25:17;13.35;;;6.88;;
53145;SDS011;39042;53.150;5.898;2024-02-21T14:27:45;11.83;;;6.53;;
53145;SDS011;39042;53.150;5.898;2024-02-21T14:30:13;9.65;;;6.80;;
53145;SDS011;39042;53.150;5.898;2024-02-21T14:32:58;8.90;;;6.18;;
53145;SDS011;39042;53.150;5.898;2024-02-21T14:35:28;9.32;;;6.72;;
53145;SDS011;39042;53.150;5.898;2024-02-21T14:37:57;13.07;;;6.18;;
53145;SDS011;39042;53.150;5.898;2024-02-21T14:40:26;8.63;;;6.13;;
53145;SDS011;39042;53.150;5.898;2024-02-21T14:42:54;10.10;;;6.57;;
53145;SDS011;39042;53.150;5.898;2024-02-21T14:45:33;11.27;;;6.90;;
53145;SDS011;39042;53.150;5.898;2024-02-21T14:47:59;11.10;;;6.13;;
53145;SDS011;39042;53.150;5.898;2024-02-21T14:52:52;9.57;;;6.05;;
53145;SDS011;39042;53.150;5.898;2024-02-21T14:55:18;12.00;;;6.53;;
53145;SDS011;39042;53.150;5.898;2024-02-21T14:57:43;10.93;;;6.68;;
53145;SDS011;39042;53.150;5.898;2024-02-21T15:00:10;9.25;;;5.95;;